sensor_id;sensor_type;location;lat;lon;timestamp;temperature;humidity
52867;DHT22;38739;53.324;6.862;2023-07-29T00:00:51;17.60;99.90
52867;DHT22;38739;53.324;6.862;2023-07-29T00:03:17;17.60;99.90
52867;DHT22;38739;53.324;6.862;2023-07-29T00:05:43;17.60;99.90
52867;DHT22;38739;53.324;6.862;2023-07-29T00:08:08;17.60;99.90
52867;DHT22;38739;53.324;6.862;2023-07-29T00:10:37;17.60;99.90
52867;DHT22;38739;53.324;6.862;2023-07-29T00:13:04;17.60;99.90
52867;DHT22;38739;53.324;6.862;2023-07-29T00:15:30;17.60;99.90
52867;DHT22;38739;53.324;6.862;2023-07-29T00:17:56;17.60;99.90
52867;DHT22;38739;53.324;6.862;2023-07-29T00:20:21;17.70;99.90
52867;DHT22;38739;53.324;6.862;2023-07-29T00:22:47;17.70;99.90
52867;DHT22;38739;53.324;6.862;2023-07-29T00:25:16;17.70;99.90
52867;DHT22;38739;53.324;6.862;2023-07-29T00:27:42;17.70;99.90
52867;DHT22;38739;53.324;6.862;2023-07-29T00:30:08;17.70;99.90
52867;DHT22;38739;53.324;6.862;2023-07-29T00:32:35;17.70;99.90
52867;DHT22;38739;53.324;6.862;2023-07-29T00:35:01;17.70;99.90
52867;DHT22;38739;53.324;6.862;2023-07-29T00:37:28;17.70;99.90
52867;DHT22;38739;53.324;6.862;2023-07-29T00:39:54;17.80;99.90
52867;DHT22;38739;53.324;6.862;2023-07-29T00:42:20;17.80;99.90
52867;DHT22;38739;53.324;6.862;2023-07-29T00:44:45;17.80;99.90
52867;DHT22;38739;53.324;6.862;2023-07-29T00:47:12;17.80;99.90
52867;DHT22;38739;53.324;6.862;2023-07-29T00:49:40;17.80;99.90
52867;DHT22;38739;53.324;6.862;2023-07-29T00:52:07;17.80;99.90
52867;DHT22;38739;53.324;6.862;2023-07-29T00:54:32;17.80;99.90
52867;DHT22;38739;53.324;6.862;2023-07-29T00:56:58;17.80;99.90
52867;DHT22;38739;53.324;6.862;2023-07-29T00:59:24;17.80;99.90
52867;DHT22;38739;53.324;6.862;2023-07-29T01:01:50;17.80;99.90
52867;DHT22;38739;53.324;6.862;2023-07-29T01:04:16;17.80;99.90
52867;DHT22;38739;53.324;6.862;2023-07-29T01:06:53;17.80;99.90
52867;DHT22;38739;53.324;6.862;2023-07-29T01:15:16;17.90;99.90
52867;DHT22;38739;53.324;6.862;2023-07-29T01:17:55;17.90;99.90
52867;DHT22;38739;53.324;6.862;2023-07-29T01:20:24;17.90;99.90
52867;DHT22;38739;53.324;6.862;2023-07-29T01:22:51;17.90;99.90
52867;DHT22;38739;53.324;6.862;2023-07-29T01:25:17;18.00;99.90
52867;DHT22;38739;53.324;6.862;2023-07-29T01:27:46;18.00;99.90
52867;DHT22;38739;53.324;6.862;2023-07-29T01:30:12;18.00;99.90
52867;DHT22;38739;53.324;6.862;2023-07-29T01:38:17;18.00;99.90
52867;DHT22;38739;53.324;6.862;2023-07-29T01:40:44;18.00;99.90
52867;DHT22;38739;53.324;6.862;2023-07-29T01:43:11;18.00;99.90
52867;DHT22;38739;53.324;6.862;2023-07-29T01:45:37;18.00;99.90
52867;DHT22;38739;53.324;6.862;2023-07-29T01:48:07;18.00;99.90
52867;DHT22;38739;53.324;6.862;2023-07-29T01:50:34;18.00;99.90
52867;DHT22;38739;53.324;6.862;2023-07-29T01:52:59;18.00;99.90
52867;DHT22;38739;53.324;6.862;2023-07-29T01:55:25;18.00;99.90
52867;DHT22;38739;53.324;6.862;2023-07-29T01:57:51;18.00;99.90
52867;DHT22;38739;53.324;6.862;2023-07-29T02:00:18;17.90;99.90
52867;DHT22;38739;53.324;6.862;2023-07-29T02:02:44;17.90;99.90
52867;DHT22;38739;53.324;6.862;2023-07-29T02:05:10;17.80;99.90
52867;DHT22;38739;53.324;6.862;2023-07-29T02:07:35;17.80;99.90
52867;DHT22;38739;53.324;6.862;2023-07-29T02:10:01;17.80;99.90
52867;DHT22;38739;53.324;6.862;2023-07-29T02:12:27;17.80;99.90
52867;DHT22;38739;53.324;6.862;2023-07-29T02:14:52;17.70;99.90
52867;DHT22;38739;53.324;6.862;2023-07-29T02:17:18;17.70;99.90
52867;DHT22;38739;53.324;6.862;2023-07-29T02:19:44;17.70;99.90
52867;DHT22;38739;53.324;6.862;2023-07-29T02:22:14;17.70;99.90
52867;DHT22;38739;53.324;6.862;2023-07-29T02:24:40;17.70;99.90
52867;DHT22;38739;53.324;6.862;2023-07-29T02:27:06;17.60;99.90
52867;DHT22;38739;53.324;6.862;2023-07-29T02:29:32;17.60;99.90
52867;DHT22;38739;53.324;6.862;2023-07-29T02:31:59;17.60;99.90
52867;DHT22;38739;53.324;6.862;2023-07-29T02:34:25;17.60;99.90
52867;DHT22;38739;53.324;6.862;2023-07-29T02:36:50;17.60;99.90
52867;DHT22;38739;53.324;6.862;2023-07-29T02:39:16;17.50;99.90
52867;DHT22;38739;53.324;6.862;2023-07-29T02:41:42;17.50;99.90
52867;DHT22;38739;53.324;6.862;2023-07-29T02:44:08;17.50;99.90
52867;DHT22;38739;53.324;6.862;2023-07-29T02:46:33;17.50;99.90
52867;DHT22;38739;53.324;6.862;2023-07-29T02:48:59;17.40;99.90
52867;DHT22;38739;53.324;6.862;2023-07-29T02:51:25;17.40;99.90
52867;DHT22;38739;53.324;6.862;2023-07-29T02:53:50;17.40;99.90
52867;DHT22;38739;53.324;6.862;2023-07-29T02:56:16;17.40;99.90
52867;DHT22;38739;53.324;6.862;2023-07-29T02:58:42;17.30;99.90
52867;DHT22;38739;53.324;6.862;2023-07-29T03:01:07;17.30;99.90
52867;DHT22;38739;53.324;6.862;2023-07-29T03:03:33;17.30;99.90
52867;DHT22;38739;53.324;6.862;2023-07-29T03:06:04;17.30;99.90
52867;DHT22;38739;53.324;6.862;2023-07-29T03:08:30;17.20;99.90
52867;DHT22;38739;53.324;6.862;2023-07-29T03:10:56;17.20;99.90
52867;DHT22;38739;53.324;6.862;2023-07-29T03:13:22;17.20;99.90
52867;DHT22;38739;53.324;6.862;2023-07-29T03:15:48;17.10;99.90
52867;DHT22;38739;53.324;6.862;2023-07-29T03:18:15;17.10;99.90
52867;DHT22;38739;53.324;6.862;2023-07-29T03:20:40;17.10;99.90
52867;DHT22;38739;53.324;6.862;2023-07-29T03:23:06;17.10;99.90
52867;DHT22;38739;53.324;6.862;2023-07-29T03:25:32;17.10;99.90
52867;DHT22;38739;53.324;6.862;2023-07-29T03:27:58;17.00;99.90
52867;DHT22;38739;53.324;6.862;2023-07-29T03:30:24;17.00;99.90
52867;DHT22;38739;53.324;6.862;2023-07-29T03:32:51;17.00;99.90
52867;DHT22;38739;53.324;6.862;2023-07-29T03:35:16;17.00;99.90
52867;DHT22;38739;53.324;6.862;2023-07-29T03:37:42;17.00;99.90
52867;DHT22;38739;53.324;6.862;2023-07-29T03:40:08;16.90;99.90
52867;DHT22;38739;53.324;6.862;2023-07-29T03:42:37;16.90;99.90
52867;DHT22;38739;53.324;6.862;2023-07-29T03:45:03;16.90;99.90
52867;DHT22;38739;53.324;6.862;2023-07-29T03:47:29;16.90;99.90
52867;DHT22;38739;53.324;6.862;2023-07-29T03:49:55;16.90;99.90
52867;DHT22;38739;53.324;6.862;2023-07-29T03:52:20;16.90;99.90
52867;DHT22;38739;53.324;6.862;2023-07-29T03:54:46;16.90;99.90
52867;DHT22;38739;53.324;6.862;2023-07-29T03:57:11;16.80;99.90
52867;DHT22;38739;53.324;6.862;2023-07-29T03:59:37;16.80;99.90
52867;DHT22;38739;53.324;6.862;2023-07-29T04:02:03;16.80;99.90
52867;DHT22;38739;53.324;6.862;2023-07-29T04:04:29;16.80;99.90
52867;DHT22;38739;53.324;6.862;2023-07-29T04:06:54;16.70;99.90
52867;DHT22;38739;53.324;6.862;2023-07-29T04:09:20;16.70;99.90
52867;DHT22;38739;53.324;6.862;2023-07-29T04:11:46;16.70;99.90
52867;DHT22;38739;53.324;6.862;2023-07-29T04:14:11;16.70;99.90
52867;DHT22;38739;53.324;6.862;2023-07-29T04:16:37;16.70;99.90
52867;DHT22;38739;53.324;6.862;2023-07-29T04:19:03;16.70;99.90
52867;DHT22;38739;53.324;6.862;2023-07-29T04:21:29;16.60;99.90
52867;DHT22;38739;53.324;6.862;2023-07-29T04:23:57;16.60;99.90
52867;DHT22;38739;53.324;6.862;2023-07-29T04:26:23;16.70;99.90
52867;DHT22;38739;53.324;6.862;2023-07-29T04:28:49;16.60;99.90
52867;DHT22;38739;53.324;6.862;2023-07-29T04:31:14;16.60;99.90
52867;DHT22;38739;53.324;6.862;2023-07-29T04:33:40;16.70;99.90
52867;DHT22;38739;53.324;6.862;2023-07-29T04:36:06;16.70;99.90
52867;DHT22;38739;53.324;6.862;2023-07-29T04:38:32;16.70;99.90
52867;DHT22;38739;53.324;6.862;2023-07-29T04:40:58;16.70;99.90
52867;DHT22;38739;53.324;6.862;2023-07-29T04:43:28;16.70;99.90
52867;DHT22;38739;53.324;6.862;2023-07-29T04:45:54;16.70;99.90
52867;DHT22;38739;53.324;6.862;2023-07-29T04:48:20;16.70;99.90
52867;DHT22;38739;53.324;6.862;2023-07-29T04:50:45;16.80;99.90
52867;DHT22;38739;53.324;6.862;2023-07-29T04:53:11;16.80;99.90
52867;DHT22;38739;53.324;6.862;2023-07-29T04:55:37;16.90;99.90
52867;DHT22;38739;53.324;6.862;2023-07-29T04:58:02;16.90;99.90
52867;DHT22;38739;53.324;6.862;2023-07-29T05:00:28;16.90;99.90
52867;DHT22;38739;53.324;6.862;2023-07-29T05:02:54;17.00;99.90
52867;DHT22;38739;53.324;6.862;2023-07-29T05:05:19;17.00;99.90
52867;DHT22;38739;53.324;6.862;2023-07-29T05:07:45;17.00;99.90
52867;DHT22;38739;53.324;6.862;2023-07-29T05:10:11;17.10;99.90
52867;DHT22;38739;53.324;6.862;2023-07-29T05:12:36;17.10;99.90
52867;DHT22;38739;53.324;6.862;2023-07-29T05:15:03;17.10;99.90
52867;DHT22;38739;53.324;6.862;2023-07-29T05:17:28;17.20;99.90
52867;DHT22;38739;53.324;6.862;2023-07-29T05:19:54;17.20;99.90
52867;DHT22;38739;53.324;6.862;2023-07-29T05:22:20;17.30;99.90
52867;DHT22;38739;53.324;6.862;2023-07-29T05:24:46;17.30;99.90
52867;DHT22;38739;53.324;6.862;2023-07-29T05:27:11;17.30;99.90
52867;DHT22;38739;53.324;6.862;2023-07-29T05:29:37;17.30;99.90
52867;DHT22;38739;53.324;6.862;2023-07-29T05:32:03;17.40;99.90
52867;DHT22;38739;53.324;6.862;2023-07-29T05:34:28;17.40;99.90
52867;DHT22;38739;53.324;6.862;2023-07-29T05:36:54;17.40;99.90
52867;DHT22;38739;53.324;6.862;2023-07-29T05:39:20;17.50;99.90
52867;DHT22;38739;53.324;6.862;2023-07-29T05:41:45;17.50;99.90
52867;DHT22;38739;53.324;6.862;2023-07-29T05:44:12;17.50;99.90
52867;DHT22;38739;53.324;6.862;2023-07-29T05:46:38;17.60;99.90
52867;DHT22;38739;53.324;6.862;2023-07-29T05:49:04;17.60;99.90
52867;DHT22;38739;53.324;6.862;2023-07-29T05:51:29;17.60;99.90
52867;DHT22;38739;53.324;6.862;2023-07-29T05:53:55;17.60;99.90
52867;DHT22;38739;53.324;6.862;2023-07-29T05:56:21;17.70;99.90
52867;DHT22;38739;53.324;6.862;2023-07-29T05:58:46;17.70;99.90
52867;DHT22;38739;53.324;6.862;2023-07-29T06:01:12;17.70;99.90
52867;DHT22;38739;53.324;6.862;2023-07-29T06:03:38;17.70;99.90
52867;DHT22;38739;53.324;6.862;2023-07-29T06:06:03;17.80;99.90
52867;DHT22;38739;53.324;6.862;2023-07-29T06:08:29;17.80;99.90
52867;DHT22;38739;53.324;6.862;2023-07-29T06:10:55;17.80;99.90
52867;DHT22;38739;53.324;6.862;2023-07-29T06:13:20;17.90;99.90
52867;DHT22;38739;53.324;6.862;2023-07-29T06:15:46;17.90;99.90
52867;DHT22;38739;53.324;6.862;2023-07-29T06:18:12;17.90;99.90
52867;DHT22;38739;53.324;6.862;2023-07-29T06:20:37;17.90;99.90
52867;DHT22;38739;53.324;6.862;2023-07-29T06:23:03;18.00;99.90
52867;DHT22;38739;53.324;6.862;2023-07-29T06:25:29;17.90;99.90
52867;DHT22;38739;53.324;6.862;2023-07-29T06:27:55;18.00;99.90
52867;DHT22;38739;53.324;6.862;2023-07-29T06:30:21;18.00;99.90
52867;DHT22;38739;53.324;6.862;2023-07-29T06:32:46;18.00;99.90
52867;DHT22;38739;53.324;6.862;2023-07-29T06:35:12;18.10;99.90
52867;DHT22;38739;53.324;6.862;2023-07-29T06:37:38;18.10;99.90
52867;DHT22;38739;53.324;6.862;2023-07-29T06:40:04;18.10;99.90
52867;DHT22;38739;53.324;6.862;2023-07-29T06:42:30;18.20;99.90
52867;DHT22;38739;53.324;6.862;2023-07-29T06:44:55;18.20;99.90
52867;DHT22;38739;53.324;6.862;2023-07-29T06:47:21;18.30;99.90
52867;DHT22;38739;53.324;6.862;2023-07-29T06:49:47;18.30;99.90
52867;DHT22;38739;53.324;6.862;2023-07-29T06:52:12;18.40;99.90
52867;DHT22;38739;53.324;6.862;2023-07-29T06:54:38;18.50;99.90
52867;DHT22;38739;53.324;6.862;2023-07-29T06:57:04;18.70;99.90
52867;DHT22;38739;53.324;6.862;2023-07-29T06:59:30;18.90;99.90
52867;DHT22;38739;53.324;6.862;2023-07-29T07:01:56;19.00;99.90
52867;DHT22;38739;53.324;6.862;2023-07-29T07:04:21;19.10;99.90
52867;DHT22;38739;53.324;6.862;2023-07-29T07:06:47;19.20;99.90
52867;DHT22;38739;53.324;6.862;2023-07-29T07:09:12;19.20;99.90
52867;DHT22;38739;53.324;6.862;2023-07-29T07:11:38;19.30;99.90
52867;DHT22;38739;53.324;6.862;2023-07-29T07:14:04;19.30;99.90
52867;DHT22;38739;53.324;6.862;2023-07-29T07:16:29;19.30;99.90
52867;DHT22;38739;53.324;6.862;2023-07-29T07:18:56;19.30;99.90
52867;DHT22;38739;53.324;6.862;2023-07-29T07:21:25;19.40;99.90
52867;DHT22;38739;53.324;6.862;2023-07-29T07:23:50;19.50;99.90
52867;DHT22;38739;53.324;6.862;2023-07-29T07:26:16;19.50;99.90
52867;DHT22;38739;53.324;6.862;2023-07-29T07:28:42;19.50;99.90
52867;DHT22;38739;53.324;6.862;2023-07-29T07:31:08;19.60;99.90
52867;DHT22;38739;53.324;6.862;2023-07-29T07:33:33;19.70;99.90
52867;DHT22;38739;53.324;6.862;2023-07-29T07:35:59;19.70;99.90
52867;DHT22;38739;53.324;6.862;2023-07-29T07:38:24;19.80;99.90
52867;DHT22;38739;53.324;6.862;2023-07-29T07:40:56;19.80;99.90
52867;DHT22;38739;53.324;6.862;2023-07-29T07:43:23;19.90;99.90
52867;DHT22;38739;53.324;6.862;2023-07-29T07:45:49;19.90;99.90
52867;DHT22;38739;53.324;6.862;2023-07-29T07:48:14;19.90;99.90
52867;DHT22;38739;53.324;6.862;2023-07-29T07:50:42;19.90;99.90
52867;DHT22;38739;53.324;6.862;2023-07-29T07:53:08;19.90;99.90
52867;DHT22;38739;53.324;6.862;2023-07-29T07:55:34;19.90;99.90
52867;DHT22;38739;53.324;6.862;2023-07-29T07:57:59;19.90;99.90
52867;DHT22;38739;53.324;6.862;2023-07-29T08:00:25;19.90;99.90
52867;DHT22;38739;53.324;6.862;2023-07-29T08:02:51;19.90;99.90
52867;DHT22;38739;53.324;6.862;2023-07-29T08:05:17;19.90;99.90
52867;DHT22;38739;53.324;6.862;2023-07-29T08:07:43;20.00;99.90
52867;DHT22;38739;53.324;6.862;2023-07-29T08:10:09;20.00;99.90
52867;DHT22;38739;53.324;6.862;2023-07-29T08:12:35;20.00;99.90
52867;DHT22;38739;53.324;6.862;2023-07-29T08:15:01;20.00;99.90
52867;DHT22;38739;53.324;6.862;2023-07-29T08:17:26;20.00;99.90
52867;DHT22;38739;53.324;6.862;2023-07-29T08:19:52;20.00;99.90
52867;DHT22;38739;53.324;6.862;2023-07-29T08:22:18;20.20;99.90
52867;DHT22;38739;53.324;6.862;2023-07-29T08:24:43;20.20;99.90
52867;DHT22;38739;53.324;6.862;2023-07-29T08:27:09;20.20;99.90
52867;DHT22;38739;53.324;6.862;2023-07-29T08:29:35;20.40;99.90
52867;DHT22;38739;53.324;6.862;2023-07-29T08:32:00;20.40;99.90
52867;DHT22;38739;53.324;6.862;2023-07-29T08:34:26;20.50;99.90
52867;DHT22;38739;53.324;6.862;2023-07-29T08:36:52;20.60;99.90
52867;DHT22;38739;53.324;6.862;2023-07-29T08:39:17;20.70;99.90
52867;DHT22;38739;53.324;6.862;2023-07-29T08:41:58;20.90;99.90
52867;DHT22;38739;53.324;6.862;2023-07-29T08:44:27;21.20;99.90
52867;DHT22;38739;53.324;6.862;2023-07-29T08:46:56;21.50;99.90
52867;DHT22;38739;53.324;6.862;2023-07-29T08:49:23;21.70;99.90
52867;DHT22;38739;53.324;6.862;2023-07-29T08:51:50;21.80;99.90
52867;DHT22;38739;53.324;6.862;2023-07-29T08:54:16;21.90;99.90
52867;DHT22;38739;53.324;6.862;2023-07-29T08:56:43;22.00;99.90
52867;DHT22;38739;53.324;6.862;2023-07-29T08:59:09;22.00;99.90
52867;DHT22;38739;53.324;6.862;2023-07-29T09:01:39;22.00;99.90
52867;DHT22;38739;53.324;6.862;2023-07-29T09:04:05;21.90;99.90
52867;DHT22;38739;53.324;6.862;2023-07-29T09:06:31;21.90;99.90
52867;DHT22;38739;53.324;6.862;2023-07-29T09:08:59;21.90;99.90
52867;DHT22;38739;53.324;6.862;2023-07-29T09:11:25;21.90;99.90
52867;DHT22;38739;53.324;6.862;2023-07-29T09:13:50;21.90;99.90
52867;DHT22;38739;53.324;6.862;2023-07-29T09:16:16;22.00;99.90
52867;DHT22;38739;53.324;6.862;2023-07-29T09:18:42;22.00;99.90
52867;DHT22;38739;53.324;6.862;2023-07-29T09:21:08;21.90;99.90
52867;DHT22;38739;53.324;6.862;2023-07-29T09:23:41;22.00;99.90
52867;DHT22;38739;53.324;6.862;2023-07-29T09:26:07;22.10;99.90
52867;DHT22;38739;53.324;6.862;2023-07-29T09:28:37;22.10;99.90
52867;DHT22;38739;53.324;6.862;2023-07-29T09:31:04;22.20;99.90
52867;DHT22;38739;53.324;6.862;2023-07-29T09:33:33;22.30;99.90
52867;DHT22;38739;53.324;6.862;2023-07-29T09:36:01;22.40;99.90
52867;DHT22;38739;53.324;6.862;2023-07-29T09:38:29;22.40;99.90
52867;DHT22;38739;53.324;6.862;2023-07-29T09:40:56;22.20;99.90
52867;DHT22;38739;53.324;6.862;2023-07-29T09:43:29;22.20;99.90
52867;DHT22;38739;53.324;6.862;2023-07-29T09:45:55;22.30;99.90
52867;DHT22;38739;53.324;6.862;2023-07-29T09:48:24;22.30;99.90
52867;DHT22;38739;53.324;6.862;2023-07-29T09:50:50;22.60;99.90
52867;DHT22;38739;53.324;6.862;2023-07-29T09:53:17;23.00;99.90
52867;DHT22;38739;53.324;6.862;2023-07-29T09:55:46;23.10;99.90
52867;DHT22;38739;53.324;6.862;2023-07-29T09:58:14;23.00;99.90
52867;DHT22;38739;53.324;6.862;2023-07-29T10:00:40;22.90;99.90
52867;DHT22;38739;53.324;6.862;2023-07-29T10:03:06;22.70;99.90
52867;DHT22;38739;53.324;6.862;2023-07-29T10:05:33;22.60;99.90
52867;DHT22;38739;53.324;6.862;2023-07-29T10:08:01;23.00;99.90
52867;DHT22;38739;53.324;6.862;2023-07-29T10:10:28;23.20;99.90
52867;DHT22;38739;53.324;6.862;2023-07-29T10:12:55;23.30;99.90
52867;DHT22;38739;53.324;6.862;2023-07-29T10:15:22;23.40;99.90
52867;DHT22;38739;53.324;6.862;2023-07-29T10:17:48;23.40;99.90
52867;DHT22;38739;53.324;6.862;2023-07-29T10:20:15;23.60;99.90
52867;DHT22;38739;53.324;6.862;2023-07-29T10:22:43;24.00;99.90
52867;DHT22;38739;53.324;6.862;2023-07-29T10:25:16;24.40;99.90
52867;DHT22;38739;53.324;6.862;2023-07-29T10:30:19;24.90;99.90
52867;DHT22;38739;53.324;6.862;2023-07-29T10:32:45;25.30;99.90
52867;DHT22;38739;53.324;6.862;2023-07-29T10:35:12;25.70;99.90
52867;DHT22;38739;53.324;6.862;2023-07-29T10:37:39;25.80;99.90
52867;DHT22;38739;53.324;6.862;2023-07-29T10:40:09;25.90;99.90
52867;DHT22;38739;53.324;6.862;2023-07-29T10:43:03;26.10;99.90
52867;DHT22;38739;53.324;6.862;2023-07-29T10:45:40;26.40;99.90
52867;DHT22;38739;53.324;6.862;2023-07-29T10:54:13;27.30;99.90
52867;DHT22;38739;53.324;6.862;2023-07-29T10:56:47;27.20;99.90
52867;DHT22;38739;53.324;6.862;2023-07-29T11:01:40;27.20;99.90
52867;DHT22;38739;53.324;6.862;2023-07-29T11:09:55;27.80;99.90
52867;DHT22;38739;53.324;6.862;2023-07-29T11:15:06;28.30;99.90
52867;DHT22;38739;53.324;6.862;2023-07-29T11:20:11;27.90;99.90
52867;DHT22;38739;53.324;6.862;2023-07-29T11:22:38;27.50;99.90
52867;DHT22;38739;53.324;6.862;2023-07-29T11:25:05;27.20;99.90
52867;DHT22;38739;53.324;6.862;2023-07-29T11:27:32;27.10;99.90
52867;DHT22;38739;53.324;6.862;2023-07-29T11:30:05;26.80;99.90
52867;DHT22;38739;53.324;6.862;2023-07-29T11:32:32;26.60;99.90
52867;DHT22;38739;53.324;6.862;2023-07-29T11:35:17;26.40;99.90
52867;DHT22;38739;53.324;6.862;2023-07-29T11:37:51;26.10;99.90
52867;DHT22;38739;53.324;6.862;2023-07-29T11:40:18;25.70;99.90
52867;DHT22;38739;53.324;6.862;2023-07-29T11:42:49;25.40;99.90
52867;DHT22;38739;53.324;6.862;2023-07-29T11:45:19;25.10;99.90
52867;DHT22;38739;53.324;6.862;2023-07-29T11:47:46;24.70;99.90
52867;DHT22;38739;53.324;6.862;2023-07-29T11:50:13;24.40;99.90
52867;DHT22;38739;53.324;6.862;2023-07-29T11:52:43;24.30;99.90
52867;DHT22;38739;53.324;6.862;2023-07-29T11:55:09;24.10;99.90
52867;DHT22;38739;53.324;6.862;2023-07-29T11:57:37;24.00;99.90
52867;DHT22;38739;53.324;6.862;2023-07-29T12:00:08;23.80;99.90
52867;DHT22;38739;53.324;6.862;2023-07-29T12:02:39;23.70;99.90
52867;DHT22;38739;53.324;6.862;2023-07-29T12:05:07;23.40;99.90
52867;DHT22;38739;53.324;6.862;2023-07-29T12:07:34;23.40;99.90
52867;DHT22;38739;53.324;6.862;2023-07-29T12:10:00;23.80;99.90
52867;DHT22;38739;53.324;6.862;2023-07-29T12:12:25;24.10;99.90
52867;DHT22;38739;53.324;6.862;2023-07-29T12:14:53;24.20;99.90
52867;DHT22;38739;53.324;6.862;2023-07-29T12:17:19;24.60;99.90
52867;DHT22;38739;53.324;6.862;2023-07-29T12:19:45;25.40;99.90
52867;DHT22;38739;53.324;6.862;2023-07-29T12:22:11;25.60;99.90
52867;DHT22;38739;53.324;6.862;2023-07-29T12:24:39;25.80;99.90
52867;DHT22;38739;53.324;6.862;2023-07-29T12:27:10;25.90;99.90
52867;DHT22;38739;53.324;6.862;2023-07-29T12:29:42;25.70;99.90
52867;DHT22;38739;53.324;6.862;2023-07-29T12:32:09;25.20;99.90
52867;DHT22;38739;53.324;6.862;2023-07-29T12:34:38;24.80;99.90
52867;DHT22;38739;53.324;6.862;2023-07-29T12:37:05;24.20;99.90
52867;DHT22;38739;53.324;6.862;2023-07-29T12:39:39;23.90;99.90
52867;DHT22;38739;53.324;6.862;2023-07-29T12:42:05;23.70;99.90
52867;DHT22;38739;53.324;6.862;2023-07-29T12:44:33;23.60;99.90
52867;DHT22;38739;53.324;6.862;2023-07-29T12:47:03;23.50;99.90
52867;DHT22;38739;53.324;6.862;2023-07-29T12:49:30;23.40;99.90
52867;DHT22;38739;53.324;6.862;2023-07-29T12:51:56;23.50;99.90
52867;DHT22;38739;53.324;6.862;2023-07-29T12:54:23;23.60;99.90
52867;DHT22;38739;53.324;6.862;2023-07-29T12:56:48;23.70;99.90
52867;DHT22;38739;53.324;6.862;2023-07-29T12:59:14;23.50;99.90
52867;DHT22;38739;53.324;6.862;2023-07-29T13:01:40;23.30;99.90
52867;DHT22;38739;53.324;6.862;2023-07-29T13:04:06;23.10;99.90
52867;DHT22;38739;53.324;6.862;2023-07-29T13:06:32;23.50;99.90
52867;DHT22;38739;53.324;6.862;2023-07-29T13:08:57;23.80;99.90
52867;DHT22;38739;53.324;6.862;2023-07-29T13:11:23;24.00;99.90
52867;DHT22;38739;53.324;6.862;2023-07-29T13:13:49;24.20;99.90
52867;DHT22;38739;53.324;6.862;2023-07-29T13:16:15;24.70;99.90
52867;DHT22;38739;53.324;6.862;2023-07-29T13:18:41;25.10;99.90
52867;DHT22;38739;53.324;6.862;2023-07-29T13:21:08;25.20;99.90
52867;DHT22;38739;53.324;6.862;2023-07-29T13:23:34;24.80;99.90
52867;DHT22;38739;53.324;6.862;2023-07-29T13:25:59;24.70;99.90
52867;DHT22;38739;53.324;6.862;2023-07-29T13:28:25;24.80;99.90
52867;DHT22;38739;53.324;6.862;2023-07-29T13:30:51;24.70;99.90
52867;DHT22;38739;53.324;6.862;2023-07-29T13:33:16;24.50;99.90
52867;DHT22;38739;53.324;6.862;2023-07-29T13:35:42;24.30;99.90
52867;DHT22;38739;53.324;6.862;2023-07-29T13:38:08;24.20;99.90
52867;DHT22;38739;53.324;6.862;2023-07-29T13:40:34;24.50;99.90
52867;DHT22;38739;53.324;6.862;2023-07-29T13:43:00;24.60;99.90
52867;DHT22;38739;53.324;6.862;2023-07-29T13:45:25;24.60;99.90
52867;DHT22;38739;53.324;6.862;2023-07-29T13:47:51;24.20;99.90
52867;DHT22;38739;53.324;6.862;2023-07-29T13:50:17;23.90;99.90
52867;DHT22;38739;53.324;6.862;2023-07-29T13:52:43;23.70;99.90
52867;DHT22;38739;53.324;6.862;2023-07-29T13:55:09;23.40;99.90
52867;DHT22;38739;53.324;6.862;2023-07-29T13:57:37;23.40;99.90
52867;DHT22;38739;53.324;6.862;2023-07-29T14:00:04;23.40;99.90
52867;DHT22;38739;53.324;6.862;2023-07-29T14:02:30;23.80;99.90
52867;DHT22;38739;53.324;6.862;2023-07-29T14:04:57;24.20;99.90
52867;DHT22;38739;53.324;6.862;2023-07-29T14:07:22;24.30;99.90
52867;DHT22;38739;53.324;6.862;2023-07-29T14:09:48;24.30;99.90
52867;DHT22;38739;53.324;6.862;2023-07-29T14:12:14;24.20;99.90
52867;DHT22;38739;53.324;6.862;2023-07-29T14:14:41;24.00;99.90
52867;DHT22;38739;53.324;6.862;2023-07-29T14:17:08;23.70;99.90
52867;DHT22;38739;53.324;6.862;2023-07-29T14:19:34;23.40;99.90
52867;DHT22;38739;53.324;6.862;2023-07-29T14:22:00;23.30;99.90
52867;DHT22;38739;53.324;6.862;2023-07-29T14:24:26;23.20;99.90
52867;DHT22;38739;53.324;6.862;2023-07-29T14:26:52;23.10;99.90
52867;DHT22;38739;53.324;6.862;2023-07-29T14:29:17;23.20;99.90
52867;DHT22;38739;53.324;6.862;2023-07-29T14:31:43;23.30;99.90
52867;DHT22;38739;53.324;6.862;2023-07-29T14:34:09;23.70;99.90
52867;DHT22;38739;53.324;6.862;2023-07-29T14:36:35;24.10;99.90
52867;DHT22;38739;53.324;6.862;2023-07-29T14:39:01;24.20;99.90
52867;DHT22;38739;53.324;6.862;2023-07-29T14:41:27;24.50;99.90
52867;DHT22;38739;53.324;6.862;2023-07-29T14:43:53;25.00;99.90
52867;DHT22;38739;53.324;6.862;2023-07-29T14:46:18;25.10;99.90
52867;DHT22;38739;53.324;6.862;2023-07-29T14:48:44;25.30;99.90
52867;DHT22;38739;53.324;6.862;2023-07-29T14:51:10;25.30;99.90
52867;DHT22;38739;53.324;6.862;2023-07-29T14:53:36;25.20;99.90
52867;DHT22;38739;53.324;6.862;2023-07-29T14:56:02;25.40;99.90
52867;DHT22;38739;53.324;6.862;2023-07-29T14:58:27;25.50;99.90
52867;DHT22;38739;53.324;6.862;2023-07-29T15:00:53;25.50;99.90
52867;DHT22;38739;53.324;6.862;2023-07-29T15:03:19;25.70;99.90
52867;DHT22;38739;53.324;6.862;2023-07-29T15:05:44;25.70;99.90
52867;DHT22;38739;53.324;6.862;2023-07-29T15:08:10;25.70;99.90
52867;DHT22;38739;53.324;6.862;2023-07-29T15:10:36;25.50;99.90
52867;DHT22;38739;53.324;6.862;2023-07-29T15:13:02;25.60;99.90
52867;DHT22;38739;53.324;6.862;2023-07-29T15:15:31;25.70;99.90
52867;DHT22;38739;53.324;6.862;2023-07-29T15:17:56;25.50;99.90
52867;DHT22;38739;53.324;6.862;2023-07-29T15:20:22;25.30;99.90
52867;DHT22;38739;53.324;6.862;2023-07-29T15:22:48;25.30;99.90
52867;DHT22;38739;53.324;6.862;2023-07-29T15:25:17;25.30;99.90
52867;DHT22;38739;53.324;6.862;2023-07-29T15:27:42;25.00;99.90
52867;DHT22;38739;53.324;6.862;2023-07-29T15:30:08;24.80;99.90
52867;DHT22;38739;53.324;6.862;2023-07-29T15:32:34;24.60;99.90
52867;DHT22;38739;53.324;6.862;2023-07-29T15:34:59;24.30;99.90
52867;DHT22;38739;53.324;6.862;2023-07-29T15:37:25;24.30;99.90
52867;DHT22;38739;53.324;6.862;2023-07-29T15:39:52;24.20;99.90
52867;DHT22;38739;53.324;6.862;2023-07-29T15:42:17;24.10;99.90
52867;DHT22;38739;53.324;6.862;2023-07-29T15:44:43;23.90;99.90
52867;DHT22;38739;53.324;6.862;2023-07-29T15:47:09;23.80;99.90
52867;DHT22;38739;53.324;6.862;2023-07-29T15:49:35;23.70;99.90
52867;DHT22;38739;53.324;6.862;2023-07-29T15:52:01;23.70;99.90
52867;DHT22;38739;53.324;6.862;2023-07-29T15:54:26;23.90;99.90
52867;DHT22;38739;53.324;6.862;2023-07-29T15:56:52;23.90;99.90
52867;DHT22;38739;53.324;6.862;2023-07-29T15:59:18;24.00;99.90